createdAt,value
2022-07-28T00:00:57.822Z,61.83
2022-07-28T00:03:24.828Z,62.10
2022-07-28T00:05:51.792Z,61.85
2022-07-28T00:08:18.635Z,61.78
2022-07-28T00:10:45.456Z,62.12
2022-07-28T00:13:12.340Z,62.12
2022-07-28T00:15:39.225Z,62.83
2022-07-28T00:18:12.929Z,62.42
2022-07-28T00:20:39.775Z,62.45
2022-07-28T00:23:06.631Z,62.81
2022-07-28T00:25:33.517Z,62.93
2022-07-28T00:28:00.310Z,62.58
2022-07-28T00:30:27.339Z,63.73
2022-07-28T00:32:54.254Z,63.14
2022-07-28T00:35:30.359Z,62.94
2022-07-28T00:37:58.929Z,63.46
2022-07-28T00:40:47.210Z,62.90
2022-07-28T00:43:14.900Z,63.44
2022-07-28T00:45:42.080Z,64.18
2022-07-28T00:48:13.506Z,63.88
2022-07-28T00:50:41.327Z,63.71
2022-07-28T00:53:09.018Z,63.81
2022-07-28T00:56:05.377Z,64.10
2022-07-28T00:58:27.401Z,64.50
2022-07-28T01:00:55.004Z,64.52
2022-07-28T01:03:22.528Z,64.46
2022-07-28T01:05:58.494Z,64.67
2022-07-28T01:08:42.844Z,64.68
2022-07-28T01:11:14.762Z,64.74
2022-07-28T01:14:14.479Z,65.16
2022-07-28T01:17:11.161Z,65.90
2022-07-28T01:19:52.856Z,66.09
2022-07-28T01:22:25.999Z,65.81
2022-07-28T01:25:00.790Z,66.21
2022-07-28T01:27:42.768Z,66.32
2022-07-28T01:30:09.714Z,66.36
2022-07-28T01:32:54.992Z,66.55
2022-07-28T01:35:26.549Z,66.95
2022-07-28T01:38:02.846Z,66.71
2022-07-28T01:40:33.794Z,66.89
2022-07-28T01:43:02.946Z,67.50
2022-07-28T01:45:32.624Z,67.61
2022-07-28T01:48:03.164Z,67.88
2022-07-28T01:50:31.557Z,68.09
2022-07-28T01:52:59.155Z,68.19
2022-07-28T01:55:27.762Z,68.09
2022-07-28T01:58:00.389Z,67.90
2022-07-28T02:00:29.079Z,68.10
2022-07-28T02:02:58.190Z,68.28
2022-07-28T02:05:26.853Z,68.94
2022-07-28T02:08:01.714Z,68.74
2022-07-28T02:10:29.656Z,68.50
2022-07-28T02:13:00.213Z,68.47
2022-07-28T02:15:28.070Z,68.68
2022-07-28T02:18:00.595Z,68.34
2022-07-28T02:20:29.173Z,68.43
2022-07-28T02:22:58.050Z,69.69
2022-07-28T02:25:25.749Z,68.81
2022-07-28T02:28:02.372Z,68.68
2022-07-28T02:30:58.450Z,68.44
2022-07-28T02:33:57.866Z,68.59
2022-07-28T02:36:20.777Z,68.51
2022-07-28T02:38:51.200Z,68.46
2022-07-28T02:41:24.846Z,68.92
2022-07-28T02:44:01.054Z,68.56
2022-07-28T02:46:52.497Z,68.43
2022-07-28T02:49:28.675Z,68.48
2022-07-28T02:51:56.951Z,68.52
2022-07-28T02:54:26.177Z,68.43
2022-07-28T02:56:54.316Z,68.27
2022-07-28T02:59:22.441Z,68.68
2022-07-28T03:01:51.078Z,68.32
2022-07-28T03:04:39.064Z,68.18
2022-07-28T03:07:06.915Z,68.57
2022-07-28T03:09:45.891Z,68.33
2022-07-28T03:12:12.859Z,68.36
2022-07-28T03:14:39.955Z,69.10
2022-07-28T03:17:07.474Z,68.92
2022-07-28T03:19:35.011Z,68.25
2022-07-28T03:22:02.222Z,68.38
2022-07-28T03:24:34.299Z,68.79
2022-07-28T03:27:34.046Z,68.89
2022-07-28T03:30:09.904Z,68.85
2022-07-28T03:32:41.624Z,69.48
2022-07-28T03:35:09.318Z,69.46
2022-07-28T03:37:59.676Z,69.35
2022-07-28T03:40:32.250Z,69.52
2022-07-28T03:43:03.718Z,69.78
2022-07-28T03:45:33.204Z,70.09
2022-07-28T03:48:01.053Z,70.24
2022-07-28T03:50:30.856Z,70.21
2022-07-28T03:52:58.956Z,70.30
2022-07-28T03:55:26.957Z,70.21
2022-07-28T03:58:00.038Z,70.41
2022-07-28T04:00:27.252Z,70.57
2022-07-28T04:02:54.145Z,70.95
2022-07-28T04:05:21.158Z,70.80
2022-07-28T04:07:48.200Z,71.38
2022-07-28T04:10:17.307Z,70.98
2022-07-28T04:12:51.613Z,71.33
2022-07-28T04:15:20.130Z,70.49
2022-07-28T04:17:53.270Z,71.05
2022-07-28T04:20:23.129Z,71.09
2022-07-28T04:22:51.133Z,71.47
2022-07-28T04:25:20.941Z,71.62
2022-07-28T04:27:48.386Z,71.46
2022-07-28T04:30:21.092Z,71.35
2022-07-28T04:32:48.687Z,71.39
2022-07-28T04:35:17.692Z,71.50
2022-07-28T04:37:46.216Z,71.56
2022-07-28T04:40:14.289Z,71.45
2022-07-28T04:42:42.400Z,71.68
2022-07-28T04:45:11.953Z,71.64
2022-07-28T04:47:40.251Z,71.44
2022-07-28T04:50:10.689Z,71.39
2022-07-28T04:52:38.631Z,71.53
2022-07-28T04:55:07.061Z,71.27
2022-07-28T04:57:34.446Z,71.27
2022-07-28T05:00:05.251Z,72.40
2022-07-28T05:02:33.360Z,71.77
2022-07-28T05:05:00.417Z,71.20
2022-07-28T05:07:27.339Z,71.08
2022-07-28T05:09:54.328Z,71.00
2022-07-28T05:12:21.590Z,70.87
2022-07-28T05:14:49.148Z,70.68
2022-07-28T05:17:15.987Z,71.40
2022-07-28T05:19:42.980Z,71.27
2022-07-28T05:22:09.845Z,71.00
2022-07-28T05:24:36.726Z,70.67
2022-07-28T05:27:03.698Z,70.70
2022-07-28T05:29:40.485Z,70.71
2022-07-28T05:32:17.187Z,70.60
2022-07-28T05:34:45.630Z,72.13
2022-07-28T05:37:12.634Z,71.36
2022-07-28T05:39:39.649Z,71.13
2022-07-28T05:42:06.686Z,70.68
2022-07-28T05:44:37.801Z,70.50
2022-07-28T05:47:06.073Z,70.82
2022-07-28T05:49:33.956Z,70.82
2022-07-28T05:52:01.380Z,71.04
2022-07-28T05:54:28.678Z,70.04
2022-07-28T05:56:55.518Z,70.09
2022-07-28T05:59:22.838Z,70.19
2022-07-28T06:01:50.092Z,69.97
2022-07-28T06:04:26.816Z,69.74
2022-07-28T06:06:55.030Z,69.84
2022-07-28T06:09:21.991Z,69.78
2022-07-28T06:11:50.927Z,68.96
2022-07-28T06:14:18.939Z,68.32
2022-07-28T06:16:51.322Z,68.25
2022-07-28T06:19:19.156Z,68.03
2022-07-28T06:21:46.180Z,68.13
2022-07-28T06:24:13.882Z,67.65
2022-07-28T06:26:44.687Z,67.78
2022-07-28T06:29:12.669Z,67.26
2022-07-28T06:31:40.324Z,67.28
2022-07-28T06:34:07.446Z,66.99
2022-07-28T06:36:34.626Z,67.03
2022-07-28T06:39:01.803Z,67.59
2022-07-28T06:41:29.075Z,67.73
2022-07-28T06:43:56.079Z,66.85
2022-07-28T06:46:23.712Z,66.52
2022-07-28T06:48:50.752Z,66.60
2022-07-28T06:51:20.159Z,66.96
2022-07-28T06:53:48.911Z,65.61
2022-07-28T06:56:16.966Z,65.38
2022-07-28T06:58:47.149Z,65.13
2022-07-28T07:01:17.210Z,64.79
2022-07-28T07:03:44.528Z,64.80
2022-07-28T07:06:11.658Z,64.05
2022-07-28T07:08:38.987Z,63.77
2022-07-28T07:11:06.039Z,63.43
2022-07-28T07:13:33.469Z,63.69
2022-07-28T07:16:01.045Z,63.45
2022-07-28T07:18:28.659Z,63.74
2022-07-28T07:20:58.219Z,63.18
2022-07-28T07:23:25.745Z,63.03
2022-07-28T07:25:53.484Z,62.38
2022-07-28T07:28:22.076Z,61.85
2022-07-28T07:30:49.292Z,61.11
2022-07-28T07:33:16.898Z,61.38
2022-07-28T07:35:44.089Z,60.87
2022-07-28T07:38:14.175Z,60.36
2022-07-28T07:40:41.244Z,59.88
2022-07-28T07:43:08.136Z,60.27
2022-07-28T07:45:35.814Z,60.07
2022-07-28T07:48:10.491Z,59.22
2022-07-28T07:50:38.796Z,59.93
2022-07-28T07:53:06.405Z,59.90
2022-07-28T07:55:37.391Z,59.58
2022-07-28T07:58:09.743Z,60.97
2022-07-28T08:00:41.471Z,61.45
2022-07-28T08:03:11.456Z,60.34
2022-07-28T08:05:41.425Z,59.01
2022-07-28T08:08:12.378Z,58.61
2022-07-28T08:10:40.501Z,58.73
2022-07-28T08:13:08.258Z,58.92
2022-07-28T08:15:35.696Z,63.80
2022-07-28T08:18:09.531Z,60.79
2022-07-28T08:20:36.513Z,59.33
2022-07-28T08:23:05.048Z,59.62
2022-07-28T08:25:35.638Z,60.30
2022-07-28T08:28:09.729Z,59.81
2022-07-28T08:30:36.740Z,58.64
2022-07-28T08:33:03.914Z,57.87
2022-07-28T08:35:34.669Z,58.00
2022-07-28T08:38:11.499Z,58.00
2022-07-28T08:40:40.023Z,57.51
2022-07-28T08:43:18.512Z,57.33
2022-07-28T08:45:52.555Z,56.11
2022-07-28T08:48:35.945Z,55.43
2022-07-28T08:51:10.404Z,54.93
2022-07-28T08:53:39.631Z,54.51
2022-07-28T08:56:08.967Z,53.36
2022-07-28T08:58:38.184Z,53.86
2022-07-28T09:01:11.355Z,53.82
2022-07-28T09:03:40.274Z,54.04
2022-07-28T09:06:08.206Z,53.91
2022-07-28T09:08:46.193Z,53.83
2022-07-28T09:11:13.168Z,55.09
2022-07-28T09:13:40.178Z,54.35
2022-07-28T09:16:07.224Z,52.91
2022-07-28T09:18:34.094Z,52.08
2022-07-28T09:21:01.326Z,51.65
2022-07-28T09:23:44.533Z,50.19
2022-07-28T09:26:12.952Z,51.24
2022-07-28T09:28:52.522Z,50.59
2022-07-28T09:31:20.305Z,50.00
2022-07-28T09:33:57.571Z,50.40
2022-07-28T09:36:24.936Z,49.74
2022-07-28T09:38:52.630Z,50.25
2022-07-28T09:41:22.108Z,49.91
2022-07-28T09:43:54.793Z,49.35
2022-07-28T09:46:29.443Z,48.93
2022-07-28T09:48:59.151Z,49.47
2022-07-28T09:51:31.279Z,47.56
2022-07-28T09:54:16.463Z,47.98
2022-07-28T09:56:45.856Z,47.54
2022-07-28T09:59:14.562Z,47.59
2022-07-28T10:01:59.925Z,47.56
2022-07-28T10:04:40.596Z,46.54
2022-07-28T10:07:17.387Z,46.46
2022-07-28T10:09:55.369Z,46.64
2022-07-28T10:12:25.020Z,47.19
2022-07-28T10:14:55.721Z,47.21
2022-07-28T10:17:31.728Z,46.16
2022-07-28T10:20:05.501Z,45.76
2022-07-28T10:22:43.108Z,46.11
2022-07-28T10:25:12.920Z,46.06
2022-07-28T10:27:42.015Z,46.83
2022-07-28T10:30:09.692Z,46.20
2022-07-28T10:32:45.337Z,46.08
2022-07-28T10:35:14.808Z,46.33
2022-07-28T10:38:12.815Z,46.49
2022-07-28T10:40:45.238Z,46.53
2022-07-28T10:43:12.876Z,47.01
2022-07-28T10:46:04.984Z,48.07
2022-07-28T10:48:29.344Z,47.03
2022-07-28T10:50:57.750Z,46.87
2022-07-28T10:53:33.469Z,46.65
2022-07-28T10:56:10.042Z,46.82
2022-07-28T10:58:49.779Z,46.43
2022-07-28T11:01:53.192Z,46.25
2022-07-28T11:04:41.869Z,47.87
2022-07-28T11:07:13.217Z,46.81
2022-07-28T11:09:40.689Z,46.88
2022-07-28T11:12:09.692Z,46.53
2022-07-28T11:14:39.490Z,47.66
2022-07-28T11:17:10.197Z,48.60
2022-07-28T11:20:16.506Z,48.64
2022-07-28T11:22:34.390Z,49.36
2022-07-28T11:25:21.212Z,49.75
2022-07-28T11:27:59.598Z,49.20
2022-07-28T11:30:26.651Z,50.35
2022-07-28T11:32:56.285Z,50.69
2022-07-28T11:35:27.461Z,50.26
2022-07-28T11:38:08.977Z,50.18
2022-07-28T11:40:41.980Z,50.09
2022-07-28T11:43:36.608Z,50.42
2022-07-28T11:46:09.837Z,51.30
2022-07-28T11:48:45.216Z,49.66
2022-07-28T11:51:13.474Z,49.85
2022-07-28T11:53:50.876Z,49.83
2022-07-28T11:56:25.641Z,49.57
2022-07-28T11:59:01.300Z,49.16
2022-07-28T12:01:31.956Z,49.92
2022-07-28T12:04:01.842Z,49.33
2022-07-28T12:06:39.060Z,49.33
2022-07-28T12:09:09.766Z,49.50
2022-07-28T12:11:38.799Z,49.06
2022-07-28T12:14:11.802Z,49.51
2022-07-28T12:16:43.496Z,48.78
2022-07-28T12:19:14.560Z,49.61
2022-07-28T12:21:53.169Z,48.77
2022-07-28T12:24:30.993Z,48.86
2022-07-28T12:26:59.915Z,48.74
2022-07-28T12:29:35.545Z,49.17
2022-07-28T12:32:10.216Z,49.40
2022-07-28T12:34:40.666Z,49.12
2022-07-28T12:37:12.687Z,48.66
2022-07-28T12:39:42.832Z,48.33
2022-07-28T12:42:11.932Z,48.53
2022-07-28T12:44:40.240Z,48.58
2022-07-28T12:47:09.465Z,48.91
2022-07-28T12:49:37.466Z,49.18
2022-07-28T12:52:21.616Z,49.58
2022-07-28T12:54:54.187Z,49.13
2022-07-28T12:58:03.746Z,49.18
2022-07-28T13:00:33.731Z,49.23
2022-07-28T13:03:19.875Z,49.61
2022-07-28T13:06:05.052Z,49.39
2022-07-28T13:08:44.726Z,49.58
2022-07-28T13:11:42.053Z,49.38
2022-07-28T13:14:01.868Z,49.09
2022-07-28T13:16:29.963Z,48.78
2022-07-28T13:19:02.859Z,48.88
2022-07-28T13:21:58.393Z,49.48
2022-07-28T13:24:29.709Z,48.84
2022-07-28T13:26:58.519Z,48.10
2022-07-28T13:29:26.483Z,48.26
2022-07-28T13:31:55.156Z,47.91
2022-07-28T13:34:22.327Z,47.85
2022-07-28T13:36:49.294Z,47.77
2022-07-28T13:39:16.501Z,47.18
2022-07-28T13:41:56.705Z,47.23
2022-07-28T13:44:25.824Z,47.03
2022-07-28T13:46:53.378Z,47.53
2022-07-28T13:49:22.968Z,47.22
2022-07-28T13:51:51.255Z,47.29
2022-07-28T13:54:19.225Z,47.57
2022-07-28T13:56:46.879Z,47.58
2022-07-28T13:59:14.029Z,47.30
2022-07-28T14:01:42.328Z,47.42
2022-07-28T14:04:15.050Z,48.28
2022-07-28T14:06:45.288Z,47.46
2022-07-28T14:09:18.785Z,47.62
2022-07-28T14:11:50.153Z,47.19
2022-07-28T14:14:25.537Z,47.36
2022-07-28T14:16:54.342Z,47.62
2022-07-28T14:19:23.641Z,46.69
2022-07-28T14:22:13.835Z,46.71
2022-07-28T14:24:44.029Z,47.08
2022-07-28T14:27:14.103Z,46.92
2022-07-28T14:29:41.287Z,47.59
2022-07-28T14:32:08.179Z,47.59
2022-07-28T14:34:35.805Z,47.41
2022-07-28T14:37:08.985Z,46.97
2022-07-28T14:39:38.358Z,47.26
2022-07-28T14:42:06.465Z,47.31
2022-07-28T14:44:33.983Z,47.56
2022-07-28T14:47:01.402Z,47.45
2022-07-28T14:49:28.394Z,47.74
2022-07-28T14:51:57.841Z,47.69
2022-07-28T14:54:24.742Z,47.27
2022-07-28T14:56:52.162Z,46.74
2022-07-28T14:59:19.363Z,46.67
2022-07-28T15:01:48.894Z,46.57
2022-07-28T15:04:16.807Z,47.42
2022-07-28T15:06:44.267Z,47.08
2022-07-28T15:09:11.466Z,47.05
2022-07-28T15:11:39.982Z,47.11
2022-07-28T15:14:07.514Z,47.30
2022-07-28T15:16:34.383Z,47.26
2022-07-28T15:19:01.556Z,46.89
2022-07-28T15:21:34.290Z,46.39
2022-07-28T15:24:03.805Z,46.45
2022-07-28T15:26:30.775Z,45.97
2022-07-28T15:28:57.636Z,45.85
2022-07-28T15:31:27.270Z,46.13
2022-07-28T15:33:57.677Z,45.65
2022-07-28T15:36:25.835Z,45.98
2022-07-28T15:38:53.825Z,46.17
2022-07-28T15:41:21.070Z,46.88
2022-07-28T15:43:47.906Z,45.88
2022-07-28T15:46:14.942Z,45.75
2022-07-28T15:48:44.010Z,46.17
2022-07-28T15:51:11.458Z,46.72
2022-07-28T15:53:39.211Z,45.88
2022-07-28T15:56:06.554Z,45.76
2022-07-28T15:58:33.499Z,46.46
2022-07-28T16:01:01.607Z,46.11
2022-07-28T16:03:30.266Z,46.18
2022-07-28T16:05:59.014Z,46.14
2022-07-28T16:08:26.666Z,46.80
2022-07-28T16:10:54.718Z,46.58
2022-07-28T16:13:36.377Z,46.79
2022-07-28T16:16:09.314Z,46.47
2022-07-28T16:18:38.263Z,46.35
2022-07-28T16:21:06.631Z,46.29
2022-07-28T16:23:34.093Z,46.24
2022-07-28T16:26:01.450Z,46.68
2022-07-28T16:28:28.566Z,47.31
2022-07-28T16:30:55.497Z,46.94
2022-07-28T16:33:22.454Z,47.58
2022-07-28T16:35:49.506Z,46.92
2022-07-28T16:38:19.415Z,46.82
2022-07-28T16:40:46.449Z,46.42
2022-07-28T16:43:13.841Z,46.32
2022-07-28T16:45:41.190Z,46.70
2022-07-28T16:48:09.136Z,46.81
2022-07-28T16:50:36.500Z,47.41
2022-07-28T16:53:06.923Z,47.84
2022-07-28T16:55:33.965Z,47.61
2022-07-28T16:58:06.650Z,47.10
2022-07-28T17:00:33.709Z,47.39
2022-07-28T17:03:01.157Z,46.93
2022-07-28T17:05:27.993Z,47.15
2022-07-28T17:08:08.518Z,47.41
2022-07-28T17:10:35.712Z,47.78
2022-07-28T17:13:03.437Z,48.09
2022-07-28T17:15:30.515Z,47.79
2022-07-28T17:18:08.024Z,48.38
2022-07-28T17:20:36.012Z,49.96
2022-07-28T17:23:04.495Z,48.34
2022-07-28T17:26:16.186Z,47.81
2022-07-28T17:28:18.739Z,48.11
2022-07-28T17:30:46.139Z,48.02
2022-07-28T17:33:13.186Z,47.35
2022-07-28T17:35:40.308Z,48.81
2022-07-28T17:38:16.375Z,47.07
2022-07-28T17:40:44.884Z,46.99
2022-07-28T17:43:12.460Z,46.64
2022-07-28T17:45:40.076Z,46.24
2022-07-28T17:48:14.873Z,47.17
2022-07-28T17:50:44.695Z,48.75
2022-07-28T17:53:11.689Z,48.66
2022-07-28T17:56:00.402Z,47.82
2022-07-28T17:58:43.057Z,46.81
2022-07-28T18:01:12.582Z,45.79
2022-07-28T18:03:58.164Z,45.58
2022-07-28T18:06:35.644Z,46.42
2022-07-28T18:09:06.539Z,47.24
2022-07-28T18:11:56.693Z,47.44
2022-07-28T18:14:27.583Z,47.34
2022-07-28T18:16:55.144Z,48.16
2022-07-28T18:19:22.718Z,47.20
2022-07-28T18:21:49.996Z,46.58
2022-07-28T18:24:18.565Z,46.97
2022-07-28T18:26:45.810Z,46.70
2022-07-28T18:29:12.833Z,45.97
2022-07-28T18:31:45.868Z,46.10
2022-07-28T18:34:14.414Z,45.71
2022-07-28T18:36:41.853Z,46.41
2022-07-28T18:39:09.027Z,46.72
2022-07-28T18:41:46.876Z,47.05
2022-07-28T18:44:18.053Z,47.09
2022-07-28T18:46:46.074Z,47.60
2022-07-28T18:49:13.597Z,47.19
2022-07-28T18:51:45.377Z,47.44
2022-07-28T18:54:14.299Z,47.81
2022-07-28T18:56:41.891Z,48.01
2022-07-28T18:59:08.912Z,48.91
2022-07-28T19:01:35.982Z,48.15
2022-07-28T19:04:03.389Z,48.59
2022-07-28T19:06:30.367Z,48.38
2022-07-28T19:08:57.223Z,48.72
2022-07-28T19:11:24.292Z,49.57
2022-07-28T19:13:51.338Z,49.72
2022-07-28T19:16:19.783Z,49.75
2022-07-28T19:18:46.904Z,49.96
2022-07-28T19:21:14.053Z,49.94
2022-07-28T19:23:41.175Z,49.87
2022-07-28T19:26:08.319Z,50.38
2022-07-28T19:28:36.169Z,50.14
2022-07-28T19:31:10.662Z,49.93
2022-07-28T19:33:40.193Z,49.88
2022-07-28T19:36:13.907Z,50.19
2022-07-28T19:38:41.640Z,50.92
2022-07-28T19:41:09.877Z,51.44
2022-07-28T19:43:36.937Z,51.46
2022-07-28T19:46:04.120Z,52.21
2022-07-28T19:48:31.453Z,51.83
2022-07-28T19:50:58.764Z,51.89
2022-07-28T19:53:32.049Z,52.57
2022-07-28T19:55:59.669Z,52.70
2022-07-28T19:58:27.176Z,52.48
2022-07-28T20:00:56.434Z,52.59
2022-07-28T20:04:01.614Z,52.88
2022-07-28T20:06:12.082Z,52.68
2022-07-28T20:08:40.548Z,52.45
2022-07-28T20:11:08.286Z,53.15
2022-07-28T20:13:35.131Z,53.27
2022-07-28T20:16:02.018Z,53.03
2022-07-28T20:18:28.999Z,52.83
2022-07-28T20:20:55.823Z,53.08
2022-07-28T20:23:22.731Z,52.77
2022-07-28T20:25:49.590Z,52.68
2022-07-28T20:28:16.655Z,53.11
2022-07-28T20:30:43.656Z,53.08
2022-07-28T20:33:10.472Z,53.29
2022-07-28T20:35:37.595Z,53.32
2022-07-28T20:38:06.164Z,53.43
2022-07-28T20:40:33.177Z,53.49
2022-07-28T20:43:00.038Z,53.67
2022-07-28T20:45:26.925Z,54.06
2022-07-28T20:47:59.707Z,54.06
2022-07-28T20:50:26.786Z,53.95
2022-07-28T20:52:53.623Z,54.17
2022-07-28T20:55:21.057Z,54.35
2022-07-28T20:57:53.705Z,53.94
2022-07-28T21:00:20.988Z,53.62
2022-07-28T21:02:47.894Z,53.37
2022-07-28T21:05:26.859Z,53.47
2022-07-28T21:08:06.529Z,53.93
2022-07-28T21:10:36.845Z,54.65
2022-07-28T21:13:03.732Z,54.78
2022-07-28T21:15:30.896Z,54.85
2022-07-28T21:18:00.428Z,55.05
2022-07-28T21:20:27.346Z,55.17
2022-07-28T21:22:54.218Z,56.00
2022-07-28T21:25:21.646Z,55.62
2022-07-28T21:28:06.958Z,56.06
2022-07-28T21:30:33.754Z,55.81
2022-07-28T21:33:00.706Z,55.97
2022-07-28T21:35:27.559Z,56.51
2022-07-28T21:37:59.660Z,56.58
2022-07-28T21:40:26.599Z,56.75
2022-07-28T21:42:53.502Z,56.89
2022-07-28T21:45:20.354Z,57.40
2022-07-28T21:47:47.878Z,57.31
2022-07-28T21:50:15.186Z,57.15
2022-07-28T21:52:42.316Z,57.68
2022-07-28T21:55:09.804Z,57.41
2022-07-28T21:57:36.601Z,57.30
2022-07-28T22:00:07.471Z,57.29
2022-07-28T22:02:34.551Z,58.00
2022-07-28T22:05:01.482Z,57.42
2022-07-28T22:07:28.545Z,57.51
2022-07-28T22:09:55.382Z,57.44
2022-07-28T22:12:22.699Z,57.32
2022-07-28T22:14:49.541Z,57.59
2022-07-28T22:17:17.226Z,57.93
2022-07-28T22:19:44.065Z,58.35
2022-07-28T22:22:11.440Z,57.81
2022-07-28T22:24:38.288Z,57.90
2022-07-28T22:27:05.398Z,57.35
2022-07-28T22:29:32.201Z,58.02
2022-07-28T22:31:59.691Z,58.03
2022-07-28T22:34:26.860Z,57.75
2022-07-28T22:36:53.804Z,58.01
2022-07-28T22:39:20.725Z,58.30
2022-07-28T22:41:48.210Z,58.11
2022-07-28T22:44:15.509Z,57.92
2022-07-28T22:46:42.611Z,58.27
2022-07-28T22:49:10.359Z,58.72
2022-07-28T22:51:37.260Z,58.83
2022-07-28T22:54:04.201Z,59.08
2022-07-28T22:56:34.986Z,59.24
2022-07-28T22:59:04.989Z,59.61
2022-07-28T23:01:32.010Z,59.71
2022-07-28T23:03:58.984Z,60.04
2022-07-28T23:06:26.584Z,59.78
2022-07-28T23:08:53.833Z,59.72
2022-07-28T23:11:20.968Z,60.32
2022-07-28T23:13:47.909Z,60.30
2022-07-28T23:16:17.193Z,60.53
2022-07-28T23:18:44.623Z,60.72
2022-07-28T23:21:12.492Z,60.67
2022-07-28T23:23:39.708Z,61.01
2022-07-28T23:26:06.656Z,61.03
2022-07-28T23:28:33.574Z,61.27
2022-07-28T23:31:00.774Z,62.23
2022-07-28T23:33:55.021Z,62.22
2022-07-28T23:36:16.975Z,62.54
2022-07-28T23:38:54.834Z,62.20
2022-07-28T23:41:21.760Z,62.32
2022-07-28T23:43:48.688Z,62.51
2022-07-28T23:46:15.748Z,62.46
2022-07-28T23:48:42.998Z,62.59
2022-07-28T23:51:09.997Z,62.89
2022-07-28T23:53:37.902Z,62.77
2022-07-28T23:56:05.082Z,63.23
2022-07-28T23:58:31.928Z,63.27
